Time;durP1;ratioP1;P1;durP2;ratioP2;P2;SDS_P1;SDS_P2;PMS_P1;PMS_P2;Temp;Humidity;BMP_temperature;BMP_pressure;BME280_temperature;BME280_humidity;BME280_pressure;Samples;Min_cycle;Max_cycle;Signal;HPM_P1;HPM_P2
2022/03/15 00:01:17;;;;;;;7.27;5.10;;;3.50;99.90;;;;;;5089930;28;20198;-72
2022/03/15 00:03:43;;;;;;;8.10;5.60;;;3.50;99.90;;;;;;5073799;28;20572;-72
2022/03/15 00:06:09;;;;;;;7.33;5.97;;;3.50;99.90;;;;;;5086099;28;20175;-71
2022/03/15 00:08:34;;;;;;;9.30;6.10;;;3.50;99.90;;;;;;5060912;28;20536;-72
2022/03/15 00:11:05;;;;;;;6.87;5.47;;;3.50;99.90;;;;;;5071966;28;20564;-72
2022/03/15 00:13:37;;;;;;;6.47;5.47;;;3.50;99.90;;;;;;5070601;28;20230;-72
2022/03/15 00:16:03;;;;;;;11.23;6.47;;;3.60;99.90;;;;;;5075046;28;20229;-72
2022/03/15 00:18:30;;;;;;;6.93;5.23;;;3.60;99.90;;;;;;5075234;28;20184;-72
2022/03/15 00:21:02;;;;;;;8.40;5.90;;;3.60;99.90;;;;;;5076834;28;20293;-72
2022/03/15 00:23:28;;;;;;;7.70;6.20;;;3.70;99.90;;;;;;5069856;28;20229;-72
2022/03/15 00:25:54;;;;;;;11.20;7.67;;;3.60;99.90;;;;;;5078420;28;20283;-72
2022/03/15 00:28:22;;;;;;;10.40;7.60;;;3.60;99.90;;;;;;5074781;28;20217;-72
2022/03/15 00:30:49;;;;;;;11.07;7.87;;;3.50;99.90;;;;;;5075831;28;20172;-72
2022/03/15 00:33:15;;;;;;;11.03;6.97;;;3.50;99.90;;;;;;5072364;28;20226;-72
2022/03/15 00:35:41;;;;;;;9.80;6.17;;;3.50;99.90;;;;;;5071211;28;20682;-72
2022/03/15 00:38:07;;;;;;;6.10;5.47;;;3.40;99.90;;;;;;5078525;28;20172;-72
2022/03/15 00:40:33;;;;;;;6.90;6.17;;;3.40;99.90;;;;;;5080910;28;20194;-72
2022/03/15 00:42:59;;;;;;;5.87;5.10;;;3.40;99.90;;;;;;5078667;28;20238;-72
2022/03/15 00:45:25;;;;;;;6.07;5.13;;;3.40;99.90;;;;;;5073866;28;20182;-72
2022/03/15 00:47:51;;;;;;;6.80;5.23;;;3.50;99.90;;;;;;5075003;28;20207;-72
2022/03/15 00:50:17;;;;;;;8.40;4.97;;;3.60;99.90;;;;;;5069109;28;20262;-72
2022/03/15 00:52:44;;;;;;;8.80;5.70;;;3.70;99.90;;;;;;5071392;28;20213;-73
2022/03/15 00:55:10;;;;;;;5.77;5.27;;;3.70;99.90;;;;;;5067706;28;20191;-73
2022/03/15 00:57:36;;;;;;;7.17;5.73;;;3.60;99.90;;;;;;5076276;28;20265;-72
2022/03/15 01:00:05;;;;;;;7.20;5.40;;;3.60;99.90;;;;;;5062471;28;20195;-73
2022/03/15 01:02:30;;;;;;;7.47;5.57;;;3.50;99.90;;;;;;5067840;28;20207;-72
2022/03/15 01:04:56;;;;;;;6.63;5.50;;;3.50;99.90;;;;;;5068786;28;20730;-72
2022/03/15 01:07:22;;;;;;;6.57;5.93;;;3.40;99.90;;;;;;5075047;28;20170;-72
2022/03/15 01:09:48;;;;;;;6.27;5.50;;;3.40;99.90;;;;;;5074320;28;20167;-72
2022/03/15 01:12:14;;;;;;;7.60;5.23;;;3.40;99.90;;;;;;5065473;28;20237;-72
2022/03/15 01:14:40;;;;;;;8.13;5.90;;;3.40;99.90;;;;;;5073842;28;20673;-72
2022/03/15 01:17:05;;;;;;;9.10;5.53;;;3.40;99.90;;;;;;5073659;28;20193;-72
2022/03/15 01:19:31;;;;;;;7.90;6.00;;;3.40;99.90;;;;;;5071370;28;20650;-72
2022/03/15 01:21:58;;;;;;;5.63;4.80;;;3.30;99.90;;;;;;5072196;28;20199;-72
2022/03/15 01:24:24;;;;;;;8.20;6.10;;;3.30;99.90;;;;;;5073669;28;20191;-72
2022/03/15 01:26:52;;;;;;;7.63;5.63;;;3.30;99.90;;;;;;5068326;28;20215;-72
2022/03/15 01:29:22;;;;;;;5.67;4.97;;;3.30;99.90;;;;;;5070911;28;20175;-72
2022/03/15 01:31:48;;;;;;;6.70;5.13;;;3.20;99.90;;;;;;5070750;28;20181;-73
2022/03/15 01:34:14;;;;;;;5.90;5.30;;;3.20;99.90;;;;;;5073102;28;20293;-73
2022/03/15 01:36:40;;;;;;;6.37;5.73;;;3.20;99.90;;;;;;5067133;28;20273;-72
2022/03/15 01:39:06;;;;;;;6.17;5.43;;;3.20;99.90;;;;;;5069712;28;20637;-72
2022/03/15 01:41:35;;;;;;;6.23;5.30;;;3.20;99.90;;;;;;5080133;28;20212;-73
2022/03/15 01:44:03;;;;;;;8.97;6.00;;;3.20;99.90;;;;;;5065732;28;20199;-73
2022/03/15 01:46:28;;;;;;;7.33;5.17;;;3.20;99.90;;;;;;5067374;28;20175;-73
2022/03/15 01:48:54;;;;;;;11.17;5.83;;;3.20;99.90;;;;;;5076103;28;20534;-72
2022/03/15 01:51:21;;;;;;;5.70;5.20;;;3.20;99.90;;;;;;5066462;28;21359;-72
2022/03/15 01:53:47;;;;;;;7.87;4.80;;;3.20;99.90;;;;;;5066507;28;20674;-72
2022/03/15 01:56:13;;;;;;;9.70;5.80;;;3.20;99.90;;;;;;5069108;28;20320;-72
2022/03/15 01:58:38;;;;;;;9.00;5.27;;;3.20;99.90;;;;;;5074787;28;20207;-73
2022/03/15 02:01:04;;;;;;;7.80;5.37;;;3.20;99.90;;;;;;5072188;28;20202;-72
2022/03/15 02:03:30;;;;;;;5.93;5.13;;;3.20;99.90;;;;;;5070149;28;20288;-72
2022/03/15 02:05:56;;;;;;;7.00;5.57;;;3.20;99.90;;;;;;5070177;28;20603;-72
2022/03/15 02:08:22;;;;;;;11.13;6.30;;;3.10;99.90;;;;;;5070513;28;20204;-73
2022/03/15 02:10:47;;;;;;;5.87;5.23;;;3.00;99.90;;;;;;5066856;28;20256;-72
2022/03/15 02:13:13;;;;;;;9.13;5.93;;;3.00;99.90;;;;;;5071383;28;20656;-72
2022/03/15 02:15:39;;;;;;;8.60;5.10;;;3.00;99.90;;;;;;5073029;28;20539;-73
2022/03/15 02:18:05;;;;;;;6.77;5.37;;;3.00;99.90;;;;;;5071406;28;20225;-72
2022/03/15 02:20:31;;;;;;;7.70;5.37;;;3.00;99.90;;;;;;5061866;28;20192;-71
2022/03/15 02:22:57;;;;;;;7.23;5.40;;;3.00;99.90;;;;;;5067274;28;20289;-72
2022/03/15 02:25:24;;;;;;;6.37;5.13;;;3.00;99.90;;;;;;5068212;28;20195;-71
2022/03/15 02:27:51;;;;;;;5.30;4.80;;;3.00;99.90;;;;;;5077109;28;20191;-71
2022/03/15 02:30:17;;;;;;;10.57;6.40;;;3.10;99.90;;;;;;5082221;28;20641;-71
2022/03/15 02:32:44;;;;;;;6.43;5.77;;;3.00;99.90;;;;;;5081710;28;20182;-72
2022/03/15 02:35:10;;;;;;;6.77;6.07;;;3.00;99.90;;;;;;5063176;28;20215;-71
2022/03/15 02:37:36;;;;;;;6.97;5.27;;;3.00;99.90;;;;;;5073367;28;20170;-72
2022/03/15 02:40:03;;;;;;;6.67;5.63;;;3.00;99.90;;;;;;5068781;28;20684;-72
2022/03/15 02:42:29;;;;;;;11.77;6.23;;;2.90;99.90;;;;;;5067779;28;20674;-72
2022/03/15 02:44:55;;;;;;;6.30;5.30;;;2.90;99.90;;;;;;5067318;28;20265;-72
2022/03/15 02:47:20;;;;;;;7.17;5.87;;;2.90;99.90;;;;;;5070390;28;20178;-72
2022/03/15 02:49:46;;;;;;;9.63;5.80;;;2.90;99.90;;;;;;5071057;28;20221;-72
2022/03/15 02:52:11;;;;;;;6.70;5.50;;;2.90;99.90;;;;;;5069082;28;20179;-72
2022/03/15 02:54:40;;;;;;;11.73;5.87;;;2.90;99.90;;;;;;5071218;28;20618;-72
2022/03/15 02:57:08;;;;;;;7.97;5.53;;;3.00;99.90;;;;;;5073379;28;20179;-70
2022/03/15 02:59:34;;;;;;;6.63;5.83;;;3.10;99.90;;;;;;5075548;28;20186;-71
2022/03/15 03:02:00;;;;;;;5.77;5.17;;;3.10;99.90;;;;;;5066041;28;20206;-72
2022/03/15 03:04:26;;;;;;;6.93;5.57;;;3.10;99.90;;;;;;5067880;28;20203;-73
2022/03/15 03:06:52;;;;;;;8.17;5.40;;;3.10;99.90;;;;;;5072082;28;20650;-71
2022/03/15 03:09:18;;;;;;;7.03;5.47;;;3.00;99.90;;;;;;5074858;28;20598;-71
2022/03/15 03:11:44;;;;;;;7.47;5.17;;;3.00;99.90;;;;;;5064434;28;20202;-72
2022/03/15 03:14:12;;;;;;;6.43;5.50;;;3.00;99.90;;;;;;5068298;28;20198;-72
2022/03/15 03:16:39;;;;;;;6.37;5.10;;;3.10;99.90;;;;;;5075383;28;20666;-72
2022/03/15 03:19:07;;;;;;;8.40;5.83;;;3.00;99.90;;;;;;5073995;28;20179;-72
2022/03/15 03:21:36;;;;;;;5.50;5.00;;;2.90;99.90;;;;;;5069115;28;20699;-72
2022/03/15 03:24:06;;;;;;;7.43;5.90;;;2.90;99.90;;;;;;5063667;28;20191;-72
2022/03/15 03:26:34;;;;;;;6.43;5.33;;;2.90;99.90;;;;;;5070516;28;20195;-72
2022/03/15 03:29:00;;;;;;;7.37;5.97;;;2.90;99.90;;;;;;5077198;28;20180;-71
2022/03/15 03:31:26;;;;;;;5.97;5.27;;;3.00;99.90;;;;;;5063880;28;20170;-72
2022/03/15 03:33:51;;;;;;;7.60;5.67;;;3.00;99.90;;;;;;5069617;28;20624;-72
2022/03/15 03:36:17;;;;;;;7.20;5.53;;;3.00;99.90;;;;;;5067150;28;20645;-72
2022/03/15 03:38:43;;;;;;;6.87;5.40;;;3.10;99.90;;;;;;5077761;28;20546;-72
2022/03/15 03:41:09;;;;;;;7.10;5.90;;;3.10;99.90;;;;;;5089221;28;20197;-72
2022/03/15 03:43:35;;;;;;;5.57;5.07;;;3.10;99.90;;;;;;5067545;28;20674;-72
2022/03/15 03:46:01;;;;;;;6.63;5.93;;;3.20;99.90;;;;;;5064014;28;20174;-72
2022/03/15 03:48:26;;;;;;;8.90;5.77;;;3.20;99.90;;;;;;5070844;28;20203;-71
2022/03/15 03:50:53;;;;;;;6.10;5.50;;;3.20;99.90;;;;;;5067233;28;20233;-71
2022/03/15 03:53:22;;;;;;;7.13;5.90;;;3.30;99.90;;;;;;5070992;28;20202;-72
2022/03/15 03:55:48;;;;;;;8.13;5.83;;;3.30;99.90;;;;;;5065747;28;20649;-72
2022/03/15 03:58:14;;;;;;;7.67;5.50;;;3.30;99.90;;;;;;5074222;28;20185;-72
2022/03/15 04:00:39;;;;;;;7.40;5.73;;;3.20;99.90;;;;;;5067055;28;20253;-71
2022/03/15 04:03:05;;;;;;;7.13;6.40;;;3.10;99.90;;;;;;5072307;28;20253;-71
2022/03/15 04:05:33;;;;;;;10.97;6.37;;;3.10;99.90;;;;;;5066816;28;20179;-72
2022/03/15 04:07:59;;;;;;;7.20;6.17;;;3.00;99.90;;;;;;5067261;28;20179;-72
2022/03/15 04:10:30;;;;;;;7.80;5.77;;;3.00;99.90;;;;;;5063906;28;20258;-71
2022/03/15 04:12:56;;;;;;;8.53;6.00;;;3.00;99.90;;;;;;5067089;28;20186;-71
2022/03/15 04:15:23;;;;;;;5.70;5.13;;;3.00;99.90;;;;;;5065750;28;20182;-71
2022/03/15 04:17:49;;;;;;;6.13;5.50;;;3.00;99.90;;;;;;5064142;28;20515;-72
2022/03/15 04:20:15;;;;;;;6.17;5.57;;;2.90;99.90;;;;;;5065021;28;20186;-72
2022/03/15 04:22:41;;;;;;;7.33;6.17;;;2.90;99.90;;;;;;5067376;28;20290;-71
2022/03/15 04:25:09;;;;;;;7.97;5.50;;;2.80;99.90;;;;;;5066358;28;20599;-72
2022/03/15 04:27:35;;;;;;;9.17;5.73;;;2.80;99.90;;;;;;5065075;28;20176;-71
2022/03/15 04:30:00;;;;;;;9.43;6.10;;;2.70;99.90;;;;;;5061252;28;20260;-72
2022/03/15 04:32:26;;;;;;;6.30;5.70;;;2.80;99.90;;;;;;5062498;28;20187;-72
2022/03/15 04:34:52;;;;;;;6.27;5.53;;;2.80;99.90;;;;;;5060476;28;20295;-72
2022/03/15 04:37:19;;;;;;;6.83;6.13;;;2.80;99.90;;;;;;5061085;28;20186;-72
2022/03/15 04:39:44;;;;;;;8.07;6.07;;;2.70;99.90;;;;;;5063423;28;20179;-72
2022/03/15 04:42:10;;;;;;;7.40;5.97;;;2.80;99.90;;;;;;5068469;28;20203;-72
2022/03/15 04:44:36;;;;;;;7.37;5.77;;;2.80;99.90;;;;;;5069812;28;20195;-71
2022/03/15 04:47:02;;;;;;;8.43;6.83;;;2.80;99.90;;;;;;5069422;28;20277;-71
2022/03/15 04:49:27;;;;;;;7.17;5.50;;;2.80;99.90;;;;;;5067015;28;20248;-71
2022/03/15 04:51:53;;;;;;;6.97;5.43;;;2.80;99.90;;;;;;5063278;28;20184;-71
2022/03/15 04:54:19;;;;;;;6.33;5.73;;;2.90;99.90;;;;;;5067305;28;20282;-71
2022/03/15 04:56:44;;;;;;;7.07;6.17;;;2.80;99.90;;;;;;5067569;28;20246;-72
2022/03/15 04:59:10;;;;;;;7.53;5.87;;;2.80;99.90;;;;;;5061706;28;20262;-73
2022/03/15 05:01:35;;;;;;;9.20;6.40;;;2.80;99.90;;;;;;5056959;28;20222;-72
2022/03/15 05:04:01;;;;;;;7.97;6.10;;;2.80;99.90;;;;;;5054756;28;20207;-72
2022/03/15 05:06:27;;;;;;;8.37;5.80;;;2.70;99.90;;;;;;5055947;28;20653;-71
2022/03/15 05:08:52;;;;;;;7.03;6.33;;;2.70;99.90;;;;;;5058567;28;20269;-73
2022/03/15 05:11:18;;;;;;;7.43;5.93;;;2.70;99.90;;;;;;5058288;28;20249;-72
2022/03/15 05:13:47;;;;;;;8.43;6.00;;;2.80;99.90;;;;;;5060172;28;20218;-72
2022/03/15 05:16:18;;;;;;;8.33;5.90;;;2.80;99.90;;;;;;5055851;28;20212;-72
2022/03/15 05:18:45;;;;;;;8.30;6.33;;;2.80;99.90;;;;;;5059353;28;20179;-72
2022/03/15 05:21:16;;;;;;;7.70;6.10;;;2.90;99.90;;;;;;5059330;28;20199;-71
2022/03/15 05:23:43;;;;;;;6.70;5.90;;;2.90;99.90;;;;;;5065797;28;20742;-71
2022/03/15 05:26:09;;;;;;;7.90;6.00;;;2.90;99.90;;;;;;5064929;28;20183;-71
2022/03/15 05:28:35;;;;;;;6.40;5.80;;;3.00;99.90;;;;;;5058271;28;20209;-72
2022/03/15 05:31:00;;;;;;;7.70;5.77;;;3.00;99.90;;;;;;5062673;28;20219;-72
2022/03/15 05:33:28;;;;;;;8.43;6.00;;;3.00;99.90;;;;;;5068894;28;20203;-72
2022/03/15 05:35:54;;;;;;;5.77;5.10;;;3.10;99.90;;;;;;5064741;28;20262;-72
2022/03/15 05:38:19;;;;;;;9.30;5.80;;;3.00;99.90;;;;;;5070907;28;20282;-72
2022/03/15 05:40:45;;;;;;;8.17;6.17;;;3.10;99.90;;;;;;5060380;28;20179;-72
2022/03/15 05:43:11;;;;;;;7.33;6.00;;;3.00;99.90;;;;;;5057829;28;20273;-72
2022/03/15 05:45:36;;;;;;;8.03;5.53;;;3.10;99.90;;;;;;5063088;28;20274;-73
2022/03/15 05:48:03;;;;;;;7.57;6.13;;;3.10;99.90;;;;;;5063947;28;20179;-72
2022/03/15 05:50:28;;;;;;;8.00;5.70;;;3.10;99.90;;;;;;5064754;28;20170;-72
2022/03/15 05:52:54;;;;;;;8.40;6.07;;;3.20;99.90;;;;;;5061743;28;20191;-73
2022/03/15 05:55:21;;;;;;;6.07;5.47;;;3.20;99.90;;;;;;5064748;28;20535;-73
2022/03/15 05:57:47;;;;;;;6.13;5.57;;;3.30;99.90;;;;;;5063753;28;20172;-72
2022/03/15 06:00:13;;;;;;;8.07;5.97;;;3.30;99.90;;;;;;5067667;28;20665;-72
2022/03/15 06:02:39;;;;;;;6.20;5.63;;;3.40;99.90;;;;;;5063236;28;20199;-72
2022/03/15 06:05:06;;;;;;;7.43;5.83;;;3.40;99.90;;;;;;5065408;28;20201;-72
2022/03/15 06:07:33;;;;;;;8.43;5.90;;;3.40;99.90;;;;;;5067388;28;20653;-72
2022/03/15 06:09:58;;;;;;;6.53;5.73;;;3.40;99.90;;;;;;5063871;28;20205;-72
2022/03/15 06:12:24;;;;;;;6.03;5.43;;;3.50;99.90;;;;;;5067994;28;20645;-72
2022/03/15 06:14:50;;;;;;;8.97;6.00;;;3.60;99.90;;;;;;5068729;28;20279;-72
2022/03/15 06:17:16;;;;;;;6.70;6.00;;;3.60;99.90;;;;;;5067298;28;20607;-72
2022/03/15 06:19:42;;;;;;;8.30;6.00;;;3.70;99.90;;;;;;5062432;28;20270;-73
2022/03/15 06:22:07;;;;;;;11.53;6.90;;;3.80;99.90;;;;;;5068773;28;20610;-73
2022/03/15 06:24:34;;;;;;;8.40;7.00;;;3.80;99.90;;;;;;5062056;28;20195;-73
2022/03/15 06:27:00;;;;;;;7.43;6.50;;;3.80;99.90;;;;;;5058393;28;20268;-74
2022/03/15 06:29:27;;;;;;;6.53;5.73;;;4.00;99.90;;;;;;5063597;28;20184;-74
2022/03/15 06:31:53;;;;;;;10.93;5.83;;;4.10;99.90;;;;;;5073486;28;20218;-72
2022/03/15 06:34:20;;;;;;;6.00;5.37;;;4.20;99.90;;;;;;5073519;28;20253;-72
2022/03/15 06:36:46;;;;;;;8.87;6.93;;;4.20;99.90;;;;;;5067051;28;20183;-71
2022/03/15 06:39:12;;;;;;;7.27;5.80;;;4.30;99.90;;;;;;5072483;28;20266;-71
2022/03/15 06:41:39;;;;;;;6.77;6.07;;;4.40;99.90;;;;;;5078276;28;20693;-71
2022/03/15 06:44:06;;;;;;;7.07;6.03;;;4.60;99.90;;;;;;5064688;28;20195;-72
2022/03/15 06:46:32;;;;;;;9.13;6.30;;;4.70;99.90;;;;;;5060684;28;20179;-72
2022/03/15 06:48:58;;;;;;;9.07;6.23;;;4.90;99.90;;;;;;5064148;28;20547;-72
2022/03/15 06:51:24;;;;;;;7.90;5.97;;;5.00;99.90;;;;;;5068723;28;20210;-72
2022/03/15 06:53:49;;;;;;;9.07;6.10;;;5.00;99.90;;;;;;5066171;28;20207;-76
2022/03/15 06:56:15;;;;;;;10.57;6.63;;;5.20;99.90;;;;;;5069461;28;20179;-72
2022/03/15 06:58:41;;;;;;;8.57;6.85;;;5.30;99.90;;;;;;5073903;28;20433;-75
2022/03/15 07:01:06;;;;;;;8.93;6.00;;;5.30;99.90;;;;;;5063923;28;20568;-74
2022/03/15 07:03:33;;;;;;;8.70;5.93;;;5.50;99.90;;;;;;5058687;28;20213;-74
2022/03/15 07:05:59;;;;;;;7.80;5.87;;;5.50;99.90;;;;;;5067928;28;20176;-73
2022/03/15 07:08:25;;;;;;;8.20;5.60;;;5.60;99.90;;;;;;5063147;28;20182;-73
2022/03/15 07:10:51;;;;;;;8.20;6.30;;;5.70;99.90;;;;;;5057673;28;20222;-73
2022/03/15 07:13:17;;;;;;;7.10;5.40;;;5.90;99.90;;;;;;5061028;28;20294;-71
2022/03/15 07:15:42;;;;;;;11.50;6.40;;;6.00;99.90;;;;;;5062023;28;20203;-71
2022/03/15 07:18:08;;;;;;;9.10;6.47;;;6.10;99.90;;;;;;5067596;28;20415;-73
2022/03/15 07:20:34;;;;;;;10.30;5.97;;;6.20;99.90;;;;;;5067620;28;20265;-74
2022/03/15 07:23:00;;;;;;;7.93;5.83;;;6.30;99.90;;;;;;5066840;28;20350;-74
2022/03/15 07:25:25;;;;;;;8.93;6.27;;;6.30;99.90;;;;;;5064469;28;20427;-73
2022/03/15 07:27:51;;;;;;;8.83;6.07;;;6.40;99.90;;;;;;5059228;28;20207;-73
2022/03/15 07:30:17;;;;;;;8.63;5.87;;;6.40;99.90;;;;;;5065149;28;20176;-73
2022/03/15 07:32:43;;;;;;;7.10;5.87;;;6.40;99.90;;;;;;5060858;28;20179;-72
2022/03/15 07:35:09;;;;;;;5.97;5.37;;;6.50;99.90;;;;;;5057798;28;20179;-73
2022/03/15 07:37:35;;;;;;;8.20;5.67;;;6.60;99.90;;;;;;5059301;28;20614;-72
2022/03/15 07:40:01;;;;;;;7.20;6.03;;;6.80;99.90;;;;;;5061975;28;20187;-73
2022/03/15 07:42:27;;;;;;;8.83;5.90;;;6.90;99.90;;;;;;5069003;28;20199;-72
2022/03/15 07:44:52;;;;;;;6.82;6.18;;;7.10;99.90;;;;;;5060462;28;20693;-73
2022/03/15 07:47:18;;;;;;;7.63;6.70;;;7.30;99.90;;;;;;5060295;28;20550;-73
2022/03/15 07:49:44;;;;;;;6.63;5.47;;;7.50;99.90;;;;;;5062818;28;20176;-74
2022/03/15 07:52:10;;;;;;;7.80;6.65;;;7.60;99.90;;;;;;5064347;28;20686;-74
2022/03/15 07:54:36;;;;;;;8.43;5.80;;;7.80;99.90;;;;;;5066945;28;20213;-74
2022/03/15 07:57:02;;;;;;;8.32;6.20;;;8.00;99.90;;;;;;5058821;28;20271;-74
2022/03/15 07:59:28;;;;;;;7.95;5.80;;;8.20;99.90;;;;;;5061070;28;20184;-74
2022/03/15 08:01:54;;;;;;;10.85;6.30;;;8.30;99.90;;;;;;5063621;28;20645;-74
2022/03/15 08:04:20;;;;;;;8.77;6.55;;;8.70;99.90;;;;;;5059341;28;20507;-73
2022/03/15 08:06:45;;;;;;;6.53;5.57;;;8.70;99.90;;;;;;5058368;28;20182;-74
2022/03/15 08:09:11;;;;;;;7.35;5.45;;;9.00;99.90;;;;;;5067172;28;20242;-72
2022/03/15 08:11:37;;;;;;;7.43;6.13;;;9.20;99.90;;;;;;5061641;28;20549;-73
2022/03/15 08:14:03;;;;;;;8.73;6.00;;;9.40;99.90;;;;;;5056941;28;20207;-73
2022/03/15 08:16:29;;;;;;;8.02;5.65;;;9.50;99.90;;;;;;5061220;28;20191;-72
2022/03/15 08:18:55;;;;;;;8.05;6.43;;;9.70;99.90;;;;;;5066147;28;20791;-73
2022/03/15 08:21:22;;;;;;;5.97;5.38;;;9.70;99.90;;;;;;5069976;28;20245;-71
2022/03/15 08:23:49;;;;;;;7.07;5.70;;;9.70;99.90;;;;;;5064880;28;20268;-75
2022/03/15 08:26:15;;;;;;;9.30;5.70;;;9.80;99.90;;;;;;5062298;28;20194;-75
2022/03/15 08:28:41;;;;;;;5.88;5.28;;;9.90;99.90;;;;;;5071316;28;20173;-75
2022/03/15 08:31:07;;;;;;;6.70;5.40;;;9.90;99.90;;;;;;5065199;28;20249;-74
2022/03/15 08:33:33;;;;;;;7.20;6.10;;;10.00;99.90;;;;;;5069447;28;20283;-78
2022/03/15 08:35:59;;;;;;;9.98;6.70;;;10.10;99.90;;;;;;5065897;28;20187;-78
2022/03/15 08:38:29;;;;;;;7.32;5.85;;;10.10;99.90;;;;;;5063797;28;20538;-77
2022/03/15 08:40:55;;;;;;;9.65;6.15;;;10.40;99.90;;;;;;5069078;28;20178;-77
2022/03/15 08:43:21;;;;;;;7.50;5.97;;;10.50;99.90;;;;;;5062464;28;20219;-77
2022/03/15 08:45:46;;;;;;;8.07;5.72;;;10.70;99.90;;;;;;5065769;28;20186;-77
2022/03/15 08:48:12;;;;;;;6.10;5.50;;;11.10;99.90;;;;;;5066973;28;20668;-76
2022/03/15 08:50:38;;;;;;;7.88;6.20;;;11.40;99.90;;;;;;5069826;28;20241;-73
2022/03/15 08:53:04;;;;;;;5.72;5.22;;;11.80;99.90;;;;;;5066178;28;20204;-74
2022/03/15 08:55:30;;;;;;;6.25;5.63;;;12.30;99.90;;;;;;5070855;28;20591;-74
2022/03/15 08:57:56;;;;;;;6.68;5.60;;;12.80;99.90;;;;;;5067339;28;21384;-78
2022/03/15 09:00:23;;;;;;;6.25;5.53;;;13.20;99.90;;;;;;5068831;28;20187;-75
2022/03/15 09:02:49;;;;;;;11.35;6.63;;;13.60;99.90;;;;;;5066917;28;20250;-81
2022/03/15 09:05:19;;;;;;;7.28;5.68;;;13.90;99.90;;;;;;5059420;28;20180;-78
2022/03/15 09:07:53;;;;;;;12.18;6.15;;;14.30;99.90;;;;;;5062642;28;20167;-77
2022/03/15 09:10:23;;;;;;;6.78;5.53;;;14.10;99.90;;;;;;5058251;28;20176;-77
2022/03/15 09:12:50;;;;;;;7.65;5.97;;;14.20;99.90;;;;;;5061734;28;20186;-76
2022/03/15 09:15:16;;;;;;;6.32;5.82;;;13.90;99.90;;;;;;5062972;28;20230;-77
2022/03/15 09:17:43;;;;;;;5.75;5.25;;;13.70;99.90;;;;;;5067672;28;20180;-76
2022/03/15 09:20:09;;;;;;;7.97;5.53;;;14.00;99.90;;;;;;5059978;28;20730;-77
2022/03/15 09:22:35;;;;;;;9.32;5.95;;;14.50;99.90;;;;;;5064128;28;20265;-74
2022/03/15 09:25:05;;;;;;;6.53;5.57;;;15.00;99.90;;;;;;5063541;28;20670;-74
2022/03/15 09:27:31;;;;;;;6.97;5.40;;;15.70;97.90;;;;;;5065062;28;20193;-76
2022/03/15 09:29:58;;;;;;;9.48;5.95;;;16.00;96.60;;;;;;5073177;28;20175;-77
2022/03/15 09:32:25;;;;;;;8.82;5.97;;;16.60;94.40;;;;;;5069501;28;20180;-75
2022/03/15 09:34:50;;;;;;;6.30;5.70;;;17.10;91.70;;;;;;5071297;28;20202;-75
2022/03/15 09:37:17;;;;;;;6.10;5.50;;;17.80;91.10;;;;;;5071336;28;20191;-75
2022/03/15 09:39:43;;;;;;;8.27;6.10;;;18.20;86.90;;;;;;5068586;28;20194;-76
2022/03/15 09:42:10;;;;;;;7.35;6.60;;;18.60;83.10;;;;;;5070612;28;20206;-76
2022/03/15 09:44:40;;;;;;;7.18;6.35;;;18.50;81.90;;;;;;5061022;28;20274;-75
2022/03/15 09:47:07;;;;;;;8.05;5.97;;;17.80;82.10;;;;;;5059413;28;20183;-75
2022/03/15 09:49:34;;;;;;;8.30;6.68;;;17.10;82.60;;;;;;5060358;28;20183;-76
2022/03/15 09:52:00;;;;;;;6.32;5.70;;;16.60;82.50;;;;;;5064971;28;20210;-75
2022/03/15 09:54:27;;;;;;;8.75;6.35;;;15.90;84.00;;;;;;5071843;28;20566;-75
2022/03/15 09:56:54;;;;;;;9.07;7.25;;;15.10;86.40;;;;;;5063779;28;20428;-76
2022/03/15 09:59:21;;;;;;;7.15;6.45;;;14.40;90.30;;;;;;5071225;28;20183;-76
2022/03/15 10:01:52;;;;;;;10.73;7.78;;;14.50;91.70;;;;;;5066855;28;20195;-75
2022/03/15 10:04:19;;;;;;;8.35;7.22;;;14.70;92.20;;;;;;5062801;28;20260;-75
2022/03/15 10:06:45;;;;;;;6.95;6.30;;;15.20;91.10;;;;;;5067961;28;20239;-76
2022/03/15 10:09:11;;;;;;;7.40;6.70;;;15.40;90.60;;;;;;5062796;28;20657;-76
2022/03/15 10:11:37;;;;;;;9.90;7.22;;;15.60;89.40;;;;;;5063914;28;20215;-75
2022/03/15 10:14:04;;;;;;;8.43;7.00;;;15.30;89.00;;;;;;5065463;28;20249;-76
2022/03/15 10:16:35;;;;;;;9.55;7.55;;;15.30;88.10;;;;;;5068665;28;20658;-76
2022/03/15 10:19:02;;;;;;;11.10;7.38;;;15.30;87.70;;;;;;5061176;28;20183;-76
2022/03/15 10:21:46;;;;;;;11.13;7.80;;;15.60;88.20;;;;;;5060846;28;20244;-76
2022/03/15 10:24:22;;;;;;;8.80;7.90;;;15.90;87.20;;;;;;5066268;28;20204;-76
2022/03/15 10:26:49;;;;;;;9.02;7.97;;;15.60;85.20;;;;;;5062986;28;20187;-76
2022/03/15 10:29:16;;;;;;;9.13;8.18;;;15.60;85.00;;;;;;5068970;28;20183;-76
2022/03/15 10:31:44;;;;;;;11.85;7.95;;;15.50;84.80;;;;;;5067655;28;20178;-80
2022/03/15 10:34:11;;;;;;;8.38;7.55;;;15.60;85.00;;;;;;5078935;28;20281;-75
2022/03/15 10:36:41;;;;;;;11.13;8.25;;;15.70;85.50;;;;;;5062231;28;20708;-76
2022/03/15 10:39:10;;;;;;;10.85;7.38;;;15.80;85.40;;;;;;5064300;28;20673;-75
2022/03/15 10:41:53;;;;;;;7.90;7.07;;;15.90;84.80;;;;;;5061300;28;20265;-74
2022/03/15 10:44:30;;;;;;;8.57;7.72;;;15.90;84.00;;;;;;5066243;28;20199;-74
2022/03/15 10:47:13;;;;;;;10.07;9.10;;;16.00;83.50;;;;;;5062880;28;20839;-74
2022/03/15 10:49:59;;;;;;;11.73;8.30;;;16.00;83.30;;;;;;5065142;28;20258;-72
2022/03/15 10:52:45;;;;;;;9.75;8.60;;;16.10;82.20;;;;;;5064314;28;20170;-72
2022/03/15 10:55:16;;;;;;;9.85;8.80;;;15.90;81.80;;;;;;5084736;28;20653;-73
2022/03/15 10:57:45;;;;;;;9.23;8.35;;;15.60;82.20;;;;;;5065953;28;20677;-73
2022/03/15 11:00:12;;;;;;;12.45;8.70;;;15.80;82.90;;;;;;5081847;28;20260;-74
2022/03/15 11:02:44;;;;;;;10.20;9.18;;;16.00;82.60;;;;;;5057288;28;20191;-72
2022/03/15 11:05:10;;;;;;;9.75;8.75;;;15.90;82.10;;;;;;5066819;28;20183;-73
2022/03/15 11:07:41;;;;;;;9.57;8.52;;;16.20;81.60;;;;;;5072282;28;20260;-73
2022/03/15 11:10:13;;;;;;;11.10;9.52;;;16.40;80.90;;;;;;5069738;28;20619;-74
2022/03/15 11:12:54;;;;;;;11.05;7.68;;;16.70;79.60;;;;;;5060751;28;20172;-73
2022/03/15 11:15:30;;;;;;;11.45;9.57;;;16.80;78.40;;;;;;5064053;28;20270;-73
2022/03/15 11:18:07;;;;;;;9.80;8.20;;;16.90;78.10;;;;;;5060682;28;20175;-76
2022/03/15 11:20:42;;;;;;;13.40;9.18;;;16.70;79.80;;;;;;5058037;28;20663;-75
2022/03/15 11:23:11;;;;;;;10.00;8.70;;;16.70;78.40;;;;;;5058363;28;20732;-74
2022/03/15 11:25:40;;;;;;;9.82;8.82;;;16.50;78.70;;;;;;5060179;28;20223;-75
2022/03/15 11:28:12;;;;;;;9.75;8.75;;;16.50;79.80;;;;;;5059029;28;20733;-73
2022/03/15 11:30:39;;;;;;;9.95;8.95;;;16.40;79.60;;;;;;5063222;28;20217;-74
2022/03/15 11:33:07;;;;;;;11.85;9.05;;;16.30;78.20;;;;;;5062333;28;20203;-74
2022/03/15 11:35:34;;;;;;;10.10;9.02;;;15.90;79.20;;;;;;5063212;28;20221;-73
2022/03/15 11:38:04;;;;;;;10.43;9.27;;;15.80;81.20;;;;;;5064782;28;20192;-74
2022/03/15 11:40:31;;;;;;;13.93;9.50;;;16.10;79.40;;;;;;5063503;28;20193;-74
2022/03/15 11:43:42;;;;;;;9.20;8.40;;;16.30;79.60;;;;;;5068255;28;20215;-75
2022/03/15 11:46:19;;;;;;;10.43;9.40;;;16.20;79.50;;;;;;5053196;28;20183;-74
2022/03/15 11:48:53;;;;;;;10.05;9.05;;;16.30;79.10;;;;;;5063235;28;20216;-74
2022/03/15 11:51:34;;;;;;;9.70;8.77;;;16.30;78.60;;;;;;5065576;28;20256;-74
2022/03/15 11:54:38;;;;;;;12.23;8.98;;;16.30;78.30;;;;;;5059574;28;20203;-74
2022/03/15 11:57:10;;;;;;;10.50;9.40;;;16.30;78.00;;;;;;5041628;28;20194;-74
2022/03/15 11:59:51;;;;;;;10.77;9.65;;;16.20;77.50;;;;;;5058275;28;20546;-74
2022/03/15 12:02:28;;;;;;;10.52;9.27;;;15.70;78.80;;;;;;5055800;28;20756;-75
2022/03/15 12:04:58;;;;;;;10.45;9.35;;;15.30;80.20;;;;;;5059040;28;20202;-74
2022/03/15 12:07:53;;;;;;;10.82;9.73;;;15.50;80.10;;;;;;5056744;28;20172;-74
2022/03/15 12:10:24;;;;;;;11.15;8.73;;;15.70;79.40;;;;;;5059196;28;20200;-74
2022/03/15 12:13:04;;;;;;;9.75;8.75;;;16.20;79.00;;;;;;5063321;28;20179;-73
2022/03/15 12:15:42;;;;;;;10.40;9.40;;;16.60;78.10;;;;;;5066215;28;20195;-75
2022/03/15 12:18:23;;;;;;;10.77;9.68;;;16.80;76.90;;;;;;5058772;28;20171;-74
2022/03/15 12:21:02;;;;;;;10.57;9.55;;;16.80;76.20;;;;;;5058715;28;20176;-75
2022/03/15 12:23:42;;;;;;;12.10;9.63;;;16.50;76.70;;;;;;5061745;28;21256;-75
2022/03/15 12:26:29;;;;;;;9.38;8.48;;;16.60;76.40;;;;;;5061084;28;20196;-75
2022/03/15 12:28:56;;;;;;;10.82;9.73;;;16.70;75.70;;;;;;5060810;28;20183;-75
2022/03/15 12:31:40;;;;;;;9.80;8.95;;;16.60;75.50;;;;;;5061591;28;20172;-74
2022/03/15 12:34:12;;;;;;;9.18;8.32;;;16.50;76.50;;;;;;5062220;28;20218;-77
2022/03/15 12:36:51;;;;;;;9.65;8.80;;;16.20;77.40;;;;;;5065258;28;20647;-76
2022/03/15 12:39:24;;;;;;;11.15;10.07;;;16.00;77.80;;;;;;5068770;28;20634;-76
2022/03/15 12:42:09;;;;;;;12.00;9.32;;;15.50;78.70;;;;;;5060756;28;20203;-75
2022/03/15 12:44:53;;;;;;;9.75;8.80;;;15.20;79.80;;;;;;5063203;28;20230;-75
2022/03/15 12:47:26;;;;;;;12.57;9.60;;;15.20;79.80;;;;;;5064038;28;20179;-77
2022/03/15 12:50:09;;;;;;;10.98;9.38;;;15.10;80.30;;;;;;5063621;28;20175;-74
2022/03/15 12:52:59;;;;;;;13.00;9.52;;;15.20;81.00;;;;;;5064545;28;20186;-75
2022/03/15 12:55:30;;;;;;;9.65;8.73;;;14.80;81.30;;;;;;5063833;28;20190;-74
2022/03/15 12:58:06;;;;;;;13.02;10.20;;;14.60;82.30;;;;;;5058188;28;20211;-75